Time;durP1;ratioP1;P1;durP2;ratioP2;P2;SDS_P1;SDS_P2;PMS_P1;PMS_P2;Temp;Humidity;BMP_temperature;BMP_pressure;BME280_temperature;BME280_humidity;BME280_pressure;Samples;Min_cycle;Max_cycle;Signal;HPM_P1;HPM_P2
2022/11/24 00:02:03;;;;;;;7.75;1.30;;;15.20;99.90;;;;;;5022998;28;20042;-77
2022/11/24 00:04:30;;;;;;;;;;;15.20;99.90;;;;;;5027370;28;20117;-77
2022/11/24 00:06:56;;;;;;;8.45;1.67;;;15.20;99.90;;;;;;5022935;28;20012;-76
2022/11/24 00:09:22;;;;;;;5.00;1.77;;;15.30;99.90;;;;;;5028108;28;21333;-76
2022/11/24 00:11:48;;;;;;;7.15;1.70;;;15.30;99.90;;;;;;5022082;28;20042;-77
2022/11/24 00:14:13;;;;;;;8.48;1.80;;;15.30;99.90;;;;;;5020526;28;20408;-78
2022/11/24 00:16:39;;;;;;;6.38;1.20;;;15.30;99.90;;;;;;5028402;28;20045;-77
2022/11/24 00:19:08;;;;;;;7.10;1.30;;;15.30;99.90;;;;;;5024216;28;20088;-77
2022/11/24 00:21:35;;;;;;;7.25;1.30;;;15.30;99.90;;;;;;5026684;28;20124;-77
2022/11/24 00:24:01;;;;;;;8.52;1.40;;;15.30;99.90;;;;;;5021571;28;20030;-77
2022/11/24 00:26:29;;;;;;;6.63;1.58;;;15.40;99.90;;;;;;5019993;28;20041;-77
2022/11/24 00:28:59;;;;;;;8.75;1.55;;;15.40;99.90;;;;;;5030213;28;20048;-76
2022/11/24 00:31:30;;;;;;;7.45;1.60;;;15.30;99.90;;;;;;5018704;28;20044;-76
2022/11/24 00:33:59;;;;;;;6.03;1.23;;;15.30;99.90;;;;;;5023898;28;20037;-76
2022/11/24 00:36:28;;;;;;;9.60;1.38;;;15.30;99.90;;;;;;5021219;28;20056;-76
2022/11/24 00:38:56;;;;;;;6.63;1.48;;;15.30;99.90;;;;;;5031233;28;20029;-77
2022/11/24 00:41:23;;;;;;;6.93;1.50;;;15.40;99.90;;;;;;5022078;28;20042;-76
2022/11/24 00:43:49;;;;;;;5.75;1.08;;;15.30;99.90;;;;;;5025515;28;20041;-76
2022/11/24 00:46:15;;;;;;;6.60;1.40;;;15.30;99.90;;;;;;5028085;28;20042;-77
2022/11/24 00:48:41;;;;;;;8.82;1.30;;;15.20;99.90;;;;;;5023013;28;20065;-78
2022/11/24 00:51:10;;;;;;;9.27;2.20;;;15.20;99.90;;;;;;5025145;28;20369;-76
2022/11/24 00:53:36;;;;;;;6.38;1.65;;;15.20;99.90;;;;;;5028566;28;20041;-76
2022/11/24 00:56:02;;;;;;;8.38;1.40;;;15.20;99.90;;;;;;5026407;28;20100;-76
2022/11/24 00:58:29;;;;;;;7.97;1.60;;;15.10;99.90;;;;;;5024947;28;20029;-77
2022/11/24 01:01:00;;;;;;;8.65;1.73;;;15.00;99.90;;;;;;5019792;28;20561;-77
2022/11/24 01:03:25;;;;;;;11.10;1.85;;;15.00;99.90;;;;;;5023926;28;20045;-77
2022/11/24 01:05:51;;;;;;;7.93;2.15;;;15.00;99.90;;;;;;5024213;28;20374;-77
2022/11/24 01:08:18;;;;;;;8.30;1.67;;;15.10;99.90;;;;;;5018085;28;20045;-76
2022/11/24 01:10:44;;;;;;;8.32;1.50;;;15.10;99.90;;;;;;5025527;28;20137;-76
2022/11/24 01:13:11;;;;;;;6.15;1.70;;;15.10;99.90;;;;;;5019911;28;20048;-76
2022/11/24 01:15:37;;;;;;;;;;;15.10;99.90;;;;;;5024196;28;20030;-76
2022/11/24 01:18:04;;;;;;;7.55;1.35;;;15.00;99.90;;;;;;5018746;28;19920;-76
2022/11/24 01:20:31;;;;;;;9.20;1.70;;;15.00;99.90;;;;;;5022482;28;20465;-75
2022/11/24 01:22:57;;;;;;;10.18;2.10;;;15.00;99.90;;;;;;5025571;28;20033;-77
2022/11/24 01:25:23;;;;;;;10.13;1.73;;;15.00;99.90;;;;;;5020291;28;20045;-76
2022/11/24 01:27:48;;;;;;;8.55;1.23;;;15.10;99.90;;;;;;5021410;28;20125;-76
2022/11/24 01:30:14;;;;;;;6.72;1.30;;;15.00;99.90;;;;;;5025900;28;20069;-77
2022/11/24 01:32:40;;;;;;;5.28;1.02;;;15.00;99.90;;;;;;5025828;28;20026;-77
2022/11/24 01:35:07;;;;;;;9.18;1.90;;;15.00;99.90;;;;;;5010375;28;20053;-77
2022/11/24 01:37:33;;;;;;;8.70;1.15;;;15.00;99.90;;;;;;5024317;28;20058;-77
2022/11/24 01:39:58;;;;;;;14.50;1.60;;;14.90;99.90;;;;;;5027900;28;20037;-76
2022/11/24 01:42:24;;;;;;;9.93;1.60;;;14.90;99.90;;;;;;5022012;28;20049;-76
2022/11/24 01:45:28;;;;;;;6.60;1.40;;;14.80;99.90;;;;;;5022474;28;20370;-76
2022/11/24 01:47:54;;;;;;;;;;;14.70;99.90;;;;;;5023541;28;20034;-77
2022/11/24 01:50:22;;;;;;;8.55;1.60;;;14.80;99.90;;;;;;5024476;28;19928;-77
2022/11/24 01:52:52;;;;;;;14.32;1.63;;;14.80;99.90;;;;;;5021717;28;20043;-76
2022/11/24 01:55:33;;;;;;;11.13;2.50;;;14.80;99.90;;;;;;5016820;28;20380;-76
2022/11/24 01:58:04;;;;;;;15.32;2.65;;;14.80;99.90;;;;;;5022249;28;20120;-77
2022/11/24 02:00:31;;;;;;;11.88;1.95;;;14.80;99.90;;;;;;5017455;28;20057;-76
2022/11/24 02:02:58;;;;;;;15.18;1.60;;;14.70;99.90;;;;;;5017904;28;20461;-76
2022/11/24 02:05:43;;;;;;;13.10;2.10;;;14.70;99.90;;;;;;5020634;28;20481;-76
2022/11/24 02:08:21;;;;;;;13.18;2.03;;;14.70;99.90;;;;;;5032204;28;20060;-76
2022/11/24 02:10:47;;;;;;;14.07;1.90;;;14.60;99.90;;;;;;5017394;28;20049;-76
2022/11/24 02:13:14;;;;;;;11.93;2.28;;;14.70;99.90;;;;;;5018707;28;20392;-76
2022/11/24 02:15:41;;;;;;;11.90;2.45;;;14.70;99.90;;;;;;5021385;28;20145;-76
2022/11/24 02:18:07;;;;;;;11.60;1.95;;;14.60;99.90;;;;;;5020264;28;20034;-76
2022/11/24 02:20:33;;;;;;;9.40;1.95;;;14.50;99.90;;;;;;5022305;28;20030;-77
2022/11/24 02:23:06;;;;;;;12.45;1.92;;;14.60;99.90;;;;;;5023707;28;20033;-76
2022/11/24 02:25:54;;;;;;;12.68;1.58;;;14.60;99.90;;;;;;5003295;28;20508;-76
2022/11/24 02:28:22;;;;;;;12.50;1.70;;;14.60;99.90;;;;;;5016130;28;20034;-76
2022/11/24 02:30:49;;;;;;;8.60;1.92;;;14.70;99.90;;;;;;5017347;28;20041;-76
2022/11/24 02:33:16;;;;;;;10.75;1.73;;;14.80;99.90;;;;;;5018263;28;20071;-77
2022/11/24 02:35:42;;;;;;;9.10;1.85;;;14.80;99.90;;;;;;5022342;28;20032;-76
2022/11/24 02:38:12;;;;;;;10.30;2.08;;;14.80;99.90;;;;;;5003162;28;20092;-76
2022/11/24 02:40:43;;;;;;;8.48;2.00;;;14.80;99.90;;;;;;4994267;28;20049;-76
2022/11/24 02:43:13;;;;;;;9.02;1.92;;;14.70;99.90;;;;;;5020524;28;20042;-76
2022/11/24 02:45:40;;;;;;;9.63;2.10;;;14.70;99.90;;;;;;5000460;28;20453;-75
2022/11/24 02:48:05;;;;;;;;;;;14.70;99.90;;;;;;5016584;28;20033;-78
2022/11/24 02:50:31;;;;;;;11.13;2.28;;;14.80;99.90;;;;;;5022233;28;20434;-75
2022/11/24 02:52:57;;;;;;;9.10;1.95;;;14.90;99.90;;;;;;5020394;28;20075;-76
2022/11/24 02:55:24;;;;;;;9.75;1.70;;;14.90;99.90;;;;;;5020960;28;20068;-75
2022/11/24 02:57:50;;;;;;;;;;;15.00;99.90;;;;;;5020979;28;20032;-77
2022/11/24 03:00:16;;;;;;;7.60;1.55;;;15.00;99.90;;;;;;5016999;28;19913;-76
2022/11/24 03:02:42;;;;;;;7.10;1.90;;;15.00;99.90;;;;;;5015789;28;20045;-76
2022/11/24 03:05:10;;;;;;;9.77;1.75;;;15.00;99.90;;;;;;5020494;28;20034;-77
2022/11/24 03:07:37;;;;;;;11.00;1.80;;;15.10;99.90;;;;;;5023223;28;20043;-77
2022/11/24 03:10:05;;;;;;;9.98;1.67;;;15.10;99.90;;;;;;5015167;28;20048;-76
2022/11/24 03:12:32;;;;;;;9.95;1.27;;;15.10;99.90;;;;;;5018861;28;20860;-77
2022/11/24 03:14:58;;;;;;;9.07;2.08;;;15.10;99.90;;;;;;5022686;28;20420;-77
2022/11/24 03:17:23;;;;;;;10.43;2.35;;;15.00;99.90;;;;;;5021505;28;20034;-76
2022/11/24 03:19:49;;;;;;;8.63;1.90;;;14.90;99.90;;;;;;5024097;28;20057;-76
2022/11/24 03:22:16;;;;;;;7.93;1.65;;;14.90;99.90;;;;;;5019397;28;20187;-76
2022/11/24 03:24:42;;;;;;;8.98;1.67;;;14.90;99.90;;;;;;5022046;28;20103;-76
2022/11/24 03:27:07;;;;;;;6.82;1.10;;;14.80;99.90;;;;;;5021055;28;20038;-75
2022/11/24 03:29:33;;;;;;;5.90;1.35;;;14.80;99.90;;;;;;5022946;28;20033;-76
2022/11/24 03:31:59;;;;;;;5.60;1.40;;;14.70;99.90;;;;;;5020013;28;20046;-76
2022/11/24 03:34:25;;;;;;;7.20;1.85;;;14.60;99.90;;;;;;5017555;28;20380;-77
2022/11/24 03:36:52;;;;;;;9.40;1.65;;;14.50;99.90;;;;;;5019804;28;20038;-76
2022/11/24 03:39:17;;;;;;;;;;;14.50;99.90;;;;;;5024740;28;20025;-75
2022/11/24 03:41:45;;;;;;;8.60;1.80;;;14.40;99.90;;;;;;5023784;28;19917;-76
2022/11/24 03:44:11;;;;;;;8.57;1.63;;;14.20;99.90;;;;;;5015895;28;20069;-76
2022/11/24 03:46:36;;;;;;;8.93;1.80;;;14.20;99.90;;;;;;5020319;28;20176;-76
2022/11/24 03:49:02;;;;;;;6.53;1.25;;;14.20;99.90;;;;;;5020971;28;20090;-77
2022/11/24 03:51:29;;;;;;;6.15;1.50;;;14.10;99.90;;;;;;5018931;28;20117;-77
2022/11/24 03:53:56;;;;;;;5.25;1.17;;;14.00;99.90;;;;;;5015921;28;20101;-77
2022/11/24 03:56:22;;;;;;;7.80;1.20;;;14.00;99.90;;;;;;5017566;28;20034;-75
2022/11/24 03:58:47;;;;;;;7.43;1.20;;;14.00;99.90;;;;;;5023606;28;20501;-77
2022/11/24 04:01:13;;;;;;;9.48;2.10;;;13.90;99.90;;;;;;5022882;28;20365;-76
2022/11/24 04:03:39;;;;;;;9.27;1.95;;;13.80;99.90;;;;;;5039630;28;20456;-75
2022/11/24 04:06:06;;;;;;;6.40;1.27;;;13.70;99.90;;;;;;5030939;28;20752;-78
2022/11/24 04:08:34;;;;;;;8.98;1.20;;;13.70;99.90;;;;;;5026802;28;20101;-76
2022/11/24 04:10:59;;;;;;;6.90;1.38;;;13.80;99.90;;;;;;5022782;28;20421;-76
2022/11/24 04:13:26;;;;;;;7.85;1.88;;;13.70;99.90;;;;;;5023182;28;20065;-76
2022/11/24 04:15:53;;;;;;;;;;;13.70;99.90;;;;;;5023890;28;20025;-76
2022/11/24 04:18:20;;;;;;;7.35;1.75;;;13.70;99.90;;;;;;5023245;28;20257;-76
2022/11/24 04:20:49;;;;;;;7.22;1.52;;;13.70;99.90;;;;;;5024628;28;20061;-76
2022/11/24 04:23:16;;;;;;;11.75;1.80;;;13.70;99.90;;;;;;5009545;28;20156;-77
2022/11/24 04:25:42;;;;;;;11.35;1.92;;;13.70;99.90;;;;;;5025595;28;20065;-76
2022/11/24 04:28:08;;;;;;;13.52;2.00;;;13.60;99.90;;;;;;5008778;28;20076;-76
2022/11/24 04:30:37;;;;;;;8.57;1.70;;;13.60;99.90;;;;;;5025100;28;20052;-76
2022/11/24 04:33:03;;;;;;;7.07;1.50;;;13.70;99.90;;;;;;5024217;28;20053;-74
2022/11/24 04:35:29;;;;;;;10.60;1.70;;;13.70;99.90;;;;;;5024079;28;20034;-74
2022/11/24 04:37:55;;;;;;;10.02;1.92;;;13.60;99.90;;;;;;5035715;28;20109;-73
2022/11/24 04:40:21;;;;;;;11.40;2.28;;;13.60;99.90;;;;;;5007190;28;20121;-74
2022/11/24 04:42:54;;;;;;;14.00;1.90;;;13.80;99.90;;;;;;5021063;28;20030;-74
2022/11/24 04:45:20;;;;;;;12.27;2.13;;;13.90;99.90;;;;;;5021042;28;20109;-75
2022/11/24 04:47:46;;;;;;;11.18;1.80;;;14.00;99.90;;;;;;5027106;28;20037;-74
2022/11/24 04:50:12;;;;;;;15.52;3.20;;;13.90;99.90;;;;;;5040756;28;20434;-74
2022/11/24 04:52:38;;;;;;;13.35;1.75;;;13.90;99.90;;;;;;5024263;28;20959;-74
2022/11/24 04:55:04;;;;;;;15.77;2.58;;;13.80;99.90;;;;;;5018562;28;20096;-73
2022/11/24 04:57:30;;;;;;;11.13;2.10;;;13.80;99.90;;;;;;5028006;28;20086;-74
2022/11/24 04:59:56;;;;;;;10.80;1.60;;;13.80;99.90;;;;;;5024152;28;20132;-75
2022/11/24 05:02:23;;;;;;;14.05;2.33;;;13.70;99.90;;;;;;5021456;28;20038;-74
2022/11/24 05:04:49;;;;;;;10.32;2.00;;;13.60;99.90;;;;;;5022883;28;20079;-74
2022/11/24 05:07:16;;;;;;;11.02;2.00;;;13.60;99.90;;;;;;5024055;28;20038;-74
2022/11/24 05:12:30;;;;;;;14.90;2.25;;;13.40;99.90;;;;;;5021311;28;19928;-76
2022/11/24 05:15:01;;;;;;;11.43;1.80;;;13.40;99.90;;;;;;5027341;28;20034;-76
2022/11/24 05:17:37;;;;;;;8.88;2.03;;;13.40;99.90;;;;;;5025189;28;20049;-77
2022/11/24 05:20:05;;;;;;;13.13;2.13;;;13.20;99.90;;;;;;5021542;28;20100;-78
2022/11/24 05:22:31;;;;;;;11.05;1.52;;;13.20;99.90;;;;;;5027330;28;20041;-76
2022/11/24 05:24:57;;;;;;;12.05;2.50;;;13.20;99.90;;;;;;5027548;28;20524;-77
2022/11/24 05:27:23;;;;;;;13.70;2.00;;;13.10;99.90;;;;;;5023686;28;20165;-76
2022/11/24 05:29:49;;;;;;;9.30;1.67;;;13.00;99.90;;;;;;5040345;28;20064;-76
2022/11/24 05:32:15;;;;;;;8.23;1.88;;;13.10;99.90;;;;;;5040256;28;20045;-76
2022/11/24 05:34:41;;;;;;;11.07;2.00;;;13.10;99.90;;;;;;5021272;28;20267;-77
2022/11/24 05:37:07;;;;;;;7.30;1.17;;;13.10;99.90;;;;;;5020388;28;20065;-77
2022/11/24 05:39:35;;;;;;;6.82;1.60;;;13.20;99.90;;;;;;5025340;28;20548;-76
2022/11/24 05:44:47;;;;;;;9.95;1.88;;;13.40;99.90;;;;;;5023685;28;20048;-76
2022/11/24 05:47:12;;;;;;;4.68;1.00;;;13.40;99.90;;;;;;5021649;28;20129;-77
2022/11/24 05:49:38;;;;;;;8.75;1.60;;;13.50;99.90;;;;;;5023668;28;20034;-77
2022/11/24 05:52:04;;;;;;;6.93;1.20;;;13.40;99.90;;;;;;5022159;28;20109;-77
2022/11/24 05:54:30;;;;;;;7.18;1.92;;;13.40;99.90;;;;;;5022213;28;20033;-76
2022/11/24 05:56:56;;;;;;;9.57;1.60;;;13.40;99.90;;;;;;5024183;28;20100;-75
2022/11/24 05:59:21;;;;;;;6.07;1.15;;;13.50;99.90;;;;;;5022548;28;20945;-77
2022/11/24 06:01:47;;;;;;;8.60;1.67;;;13.40;99.90;;;;;;5024865;28;20056;-77
2022/11/24 06:04:13;;;;;;;6.72;1.30;;;13.40;99.90;;;;;;5026418;28;20120;-76
2022/11/24 06:06:39;;;;;;;8.75;1.35;;;13.40;99.90;;;;;;5020902;28;20039;-76
2022/11/24 06:09:05;;;;;;;8.05;1.20;;;13.40;99.90;;;;;;5023096;28;20042;-77
2022/11/24 06:11:33;;;;;;;9.65;1.67;;;13.50;99.90;;;;;;5038506;28;20041;-76
2022/11/24 06:13:59;;;;;;;10.02;1.52;;;13.70;99.90;;;;;;5022619;28;20097;-75
2022/11/24 06:16:25;;;;;;;8.43;1.85;;;13.60;99.90;;;;;;5024406;28;20076;-77
2022/11/24 06:18:50;;;;;;;10.55;1.40;;;13.70;99.90;;;;;;5032587;28;20037;-77
2022/11/24 06:21:16;;;;;;;13.75;1.90;;;13.70;99.90;;;;;;5030201;28;20030;-76
2022/11/24 06:23:42;;;;;;;10.50;1.58;;;13.70;99.90;;;;;;5027383;28;20042;-77
2022/11/24 06:26:08;;;;;;;12.85;1.80;;;13.70;99.90;;;;;;5028558;28;20072;-78
2022/11/24 06:28:34;;;;;;;9.45;1.45;;;13.60;99.90;;;;;;5029267;28;20060;-76
2022/11/24 06:31:01;;;;;;;10.30;1.40;;;13.70;99.90;;;;;;5031424;28;20065;-77
2022/11/24 06:33:37;;;;;;;8.95;1.52;;;13.60;99.90;;;;;;5027211;28;20037;-76
2022/11/24 06:36:09;;;;;;;9.85;1.88;;;13.60;99.90;;;;;;5025092;28;20026;-76
2022/11/24 06:38:35;;;;;;;10.43;1.42;;;13.70;99.90;;;;;;5025759;28;20059;-76
2022/11/24 06:41:10;;;;;;;12.38;2.05;;;13.70;99.90;;;;;;5028559;28;20033;-76
2022/11/24 06:43:36;;;;;;;14.50;2.30;;;13.70;99.90;;;;;;5029145;28;20571;-77
2022/11/24 06:46:02;;;;;;;13.50;1.92;;;13.60;99.90;;;;;;5030000;28;20087;-76
2022/11/24 06:48:29;;;;;;;11.45;2.47;;;13.60;99.90;;;;;;5034238;28;20084;-77
2022/11/24 06:51:02;;;;;;;11.88;1.88;;;13.50;99.90;;;;;;5040439;28;20081;-77
2022/11/24 06:53:40;;;;;;;15.77;2.35;;;13.50;99.90;;;;;;5024493;28;20038;-77
2022/11/24 06:56:08;;;;;;;14.27;1.98;;;13.60;99.90;;;;;;5026169;28;20038;-77
2022/11/24 06:58:34;;;;;;;15.85;2.15;;;13.60;99.90;;;;;;5028241;28;20046;-76
2022/11/24 07:01:00;;;;;;;16.27;1.95;;;13.50;99.90;;;;;;5030397;28;20101;-77
2022/11/24 07:03:26;;;;;;;13.10;2.10;;;13.50;99.90;;;;;;5031662;28;20033;-77
2022/11/24 07:05:56;;;;;;;9.27;2.17;;;13.50;99.90;;;;;;5027240;28;20034;-77
2022/11/24 07:08:22;;;;;;;14.30;2.63;;;13.60;99.90;;;;;;5026860;28;20089;-77
2022/11/24 07:10:48;;;;;;;11.15;2.35;;;13.60;99.90;;;;;;5030164;28;20475;-76
2022/11/24 07:13:14;;;;;;;19.00;2.97;;;13.70;99.90;;;;;;5026510;28;20026;-76
2022/11/24 07:15:40;;;;;;;17.95;2.88;;;13.70;99.90;;;;;;5033351;28;20030;-76
2022/11/24 07:18:06;;;;;;;16.67;2.92;;;13.70;99.90;;;;;;5031000;28;20026;-76
2022/11/24 07:20:32;;;;;;;16.63;3.45;;;13.80;99.90;;;;;;5029275;28;20064;-77
2022/11/24 07:22:58;;;;;;;19.23;2.85;;;13.80;99.90;;;;;;5027272;28;20118;-77
2022/11/24 07:25:24;;;;;;;11.38;2.00;;;13.80;99.90;;;;;;5023733;28;20041;-76
2022/11/24 07:27:56;;;;;;;14.85;2.50;;;13.80;99.90;;;;;;5024781;28;20562;-76
2022/11/24 07:30:22;;;;;;;18.77;3.10;;;13.90;99.90;;;;;;5024255;28;20044;-77
2022/11/24 07:32:47;;;;;;;19.35;2.80;;;14.00;99.90;;;;;;5033665;28;20050;-76
2022/11/24 07:35:13;;;;;;;15.73;2.65;;;14.10;99.90;;;;;;5031949;28;20034;-76
2022/11/24 07:37:39;;;;;;;14.93;2.10;;;14.10;99.90;;;;;;5027502;28;20038;-77
2022/11/24 07:40:06;;;;;;;19.45;2.50;;;14.20;99.90;;;;;;5027601;28;20042;-76
2022/11/24 07:42:33;;;;;;;19.75;2.58;;;14.20;99.90;;;;;;5031530;28;20049;-74
2022/11/24 07:44:59;;;;;;;13.05;2.55;;;14.30;99.90;;;;;;5014815;28;20312;-73
2022/11/24 07:47:26;;;;;;;12.93;2.03;;;14.40;99.90;;;;;;5027521;28;20763;-74
2022/11/24 07:49:52;;;;;;;16.15;2.35;;;14.50;99.90;;;;;;5024045;28;20050;-73
2022/11/24 07:52:19;;;;;;;16.25;2.13;;;14.60;99.90;;;;;;5024411;28;20034;-74
2022/11/24 07:54:44;;;;;;;;;;;14.70;99.90;;;;;;5026402;28;20060;-74
2022/11/24 07:57:10;;;;;;;17.65;2.20;;;14.80;99.90;;;;;;5024197;28;19897;-73
2022/11/24 07:59:36;;;;;;;10.25;2.05;;;14.90;99.90;;;;;;5024035;28;20091;-74
2022/11/24 08:02:03;;;;;;;14.45;2.80;;;15.10;99.90;;;;;;5020653;28;20362;-73
2022/11/24 08:04:29;;;;;;;11.52;2.30;;;15.20;99.90;;;;;;5022390;28;20112;-77
2022/11/24 08:06:54;;;;;;;16.92;2.35;;;15.40;99.90;;;;;;5024475;28;20033;-78
2022/11/24 08:09:20;;;;;;;18.02;3.00;;;15.90;99.90;;;;;;5024248;28;20050;-79
2022/11/24 08:11:46;;;;;;;14.30;3.25;;;16.20;99.90;;;;;;5020338;28;20531;-77
2022/11/24 08:14:12;;;;;;;15.93;2.95;;;16.60;99.90;;;;;;5028068;28;20046;-76
2022/11/24 08:16:41;;;;;;;15.13;3.00;;;16.50;99.90;;;;;;5016979;28;20095;-79
2022/11/24 08:19:09;;;;;;;15.63;2.47;;;16.20;99.90;;;;;;5024603;28;20045;-78
2022/11/24 08:21:35;;;;;;;18.13;2.30;;;16.00;99.90;;;;;;5033088;28;20045;-77
2022/11/24 08:24:01;;;;;;;21.08;3.13;;;16.10;99.90;;;;;;5023966;28;20575;-78
2022/11/24 08:26:27;;;;;;;17.77;3.17;;;16.20;99.90;;;;;;5022596;28;20044;-77
2022/11/24 08:28:55;;;;;;;16.25;2.58;;;16.50;99.90;;;;;;5021768;28;20508;-75
2022/11/24 08:31:22;;;;;;;17.73;2.72;;;16.60;99.90;;;;;;5027297;28;20380;-77
2022/11/24 08:33:50;;;;;;;19.58;2.72;;;16.40;99.90;;;;;;5021814;28;20038;-77
2022/11/24 08:36:18;;;;;;;14.23;3.08;;;16.50;99.90;;;;;;5027253;28;20026;-76
2022/11/24 08:38:44;;;;;;;15.80;2.50;;;17.00;99.90;;;;;;5008288;28;20048;-76
2022/11/24 08:41:15;;;;;;;19.83;3.40;;;17.30;99.90;;;;;;4973589;28;20033;-77
2022/11/24 08:43:42;;;;;;;22.27;3.75;;;16.90;99.90;;;;;;4996781;28;20044;-77
2022/11/24 08:46:15;;;;;;;21.20;3.25;;;17.10;99.90;;;;;;5023514;28;20042;-77
2022/11/24 08:48:42;;;;;;;19.83;2.83;;;16.80;99.90;;;;;;5011426;28;20041;-76
2022/11/24 08:51:09;;;;;;;;;;;16.70;99.90;;;;;;5026696;28;20037;-77
2022/11/24 08:53:35;;;;;;;20.23;3.55;;;16.90;99.90;;;;;;5020364;28;20014;-77
2022/11/24 08:56:02;;;;;;;20.42;3.30;;;17.20;99.90;;;;;;5023950;28;20022;-76
2022/11/24 08:58:29;;;;;;;18.52;3.78;;;17.50;99.90;;;;;;5018330;28;20050;-76
2022/11/24 09:00:55;;;;;;;21.67;3.95;;;17.60;99.90;;;;;;5027638;28;20041;-77
2022/11/24 09:03:24;;;;;;;21.15;4.07;;;17.30;99.90;;;;;;5013911;28;20371;-77
2022/11/24 09:05:51;;;;;;;24.33;3.10;;;17.10;99.90;;;;;;5005312;28;20451;-77
2022/11/24 09:08:17;;;;;;;15.48;3.47;;;17.00;99.90;;;;;;5019674;28;20041;-76
2022/11/24 09:10:43;;;;;;;17.67;2.80;;;16.70;99.90;;;;;;5024609;28;20060;-77
2022/11/24 09:13:09;;;;;;;26.27;3.30;;;16.60;99.90;;;;;;5026623;28;20065;-77
2022/11/24 09:15:35;;;;;;;17.48;3.22;;;16.60;99.90;;;;;;5024828;28;20053;-78
2022/11/24 09:18:01;;;;;;;19.30;3.78;;;16.50;99.90;;;;;;5011775;28;20087;-73
2022/11/24 09:20:26;;;;;;;25.35;3.50;;;16.20;99.90;;;;;;5024846;28;20030;-74
2022/11/24 09:22:52;;;;;;;18.13;2.90;;;16.30;99.90;;;;;;5019181;28;20141;-75
2022/11/24 09:25:20;;;;;;;21.40;2.97;;;16.10;99.90;;;;;;5009977;28;20149;-74
2022/11/24 09:27:46;;;;;;;14.82;2.60;;;16.30;99.90;;;;;;5018643;28;20574;-74
2022/11/24 09:30:12;;;;;;;15.68;2.88;;;16.40;99.90;;;;;;5013339;28;20180;-74
2022/11/24 09:32:38;;;;;;;16.58;3.67;;;16.40;99.90;;;;;;5023960;28;20084;-75
2022/11/24 09:35:04;;;;;;;15.95;3.40;;;17.00;99.90;;;;;;5018277;28;20507;-74
2022/11/24 09:37:32;;;;;;;17.92;3.22;;;17.20;99.90;;;;;;5019915;28;20033;-74
2022/11/24 09:39:57;;;;;;;19.10;3.00;;;17.10;99.90;;;;;;5021970;28;20052;-75
2022/11/24 09:42:26;;;;;;;21.02;3.17;;;17.30;99.90;;;;;;5015957;28;20034;-74
2022/11/24 09:45:00;;;;;;;21.10;3.35;;;17.50;99.90;;;;;;5017742;28;20050;-75
2022/11/24 09:47:32;;;;;;;19.27;3.97;;;17.30;99.90;;;;;;5030776;28;20398;-74
2022/11/24 09:50:13;;;;;;;17.90;2.80;;;17.30;99.90;;;;;;5024414;28;20034;-74
2022/11/24 09:53:02;;;;;;;22.92;3.38;;;17.10;99.90;;;;;;5021665;28;20049;-73
2022/11/24 09:55:38;;;;;;;16.25;3.58;;;17.10;99.90;;;;;;5018344;28;20384;-73
2022/11/24 09:58:23;;;;;;;21.33;3.58;;;16.90;99.90;;;;;;5017833;28;20041;-77
2022/11/24 10:00:50;;;;;;;;;;;17.00;99.90;;;;;;5017192;28;20049;-76
2022/11/24 10:03:44;;;;;;;22.58;3.25;;;16.80;99.90;;;;;;5020553;28;19928;-76
2022/11/24 10:06:46;;;;;;;24.67;3.42;;;16.80;99.90;;;;;;5014222;28;20034;-77
2022/11/24 10:09:26;;;;;;;20.90;3.63;;;16.90;99.90;;;;;;5018550;28;20065;-77
2022/11/24 10:12:26;;;;;;;21.45;3.20;;;17.10;99.90;;;;;;5017646;28;20493;-77
2022/11/24 10:15:17;;;;;;;17.40;3.65;;;17.40;99.90;;;;;;5011639;28;20132;-77
2022/11/24 10:18:20;;;;;;;24.40;3.20;;;18.20;99.90;;;;;;5026189;28;20129;-77
2022/11/24 10:21:23;;;;;;;17.58;3.58;;;17.90;99.90;;;;;;5016483;28;20428;-77
2022/11/24 10:23:49;;;;;;;;;;;17.70;99.90;;;;;;5027377;28;20045;-77
2022/11/24 10:26:35;;;;;;;17.05;3.95;;;17.50;99.90;;;;;;5013741;28;20780;-77
2022/11/24 10:29:18;;;;;;;17.73;3.13;;;17.40;99.90;;;;;;5023552;28;20057;-77
2022/11/24 10:31:47;;;;;;;25.75;4.10;;;17.50;99.90;;;;;;5017532;28;20128;-77
2022/11/24 10:34:33;;;;;;;16.63;3.50;;;17.30;99.90;;;;;;5021298;28;20116;-77
2022/11/24 10:37:11;;;;;;;20.33;3.58;;;17.30;99.90;;;;;;5017501;28;20104;-77
2022/11/24 10:40:02;;;;;;;19.27;2.97;;;17.40;99.90;;;;;;5022022;28;20041;-76
2022/11/24 10:42:35;;;;;;;19.92;3.55;;;17.50;99.90;;;;;;5017685;28;20030;-78
2022/11/24 10:45:08;;;;;;;18.92;3.20;;;17.20;99.90;;;;;;5017036;28;20046;-77
2022/11/24 10:47:34;;;;;;;25.08;3.95;;;17.10;99.90;;;;;;5023299;28;20493;-77
2022/11/24 10:50:23;;;;;;;20.85;3.38;;;17.10;99.90;;;;;;5018556;28;20038;-77
2022/11/24 10:52:55;;;;;;;24.55;3.85;;;16.80;99.90;;;;;;4993551;28;20034;-77
2022/11/24 10:55:21;;;;;;;23.55;3.67;;;16.80;99.90;;;;;;5018099;28;20044;-76
2022/11/24 10:57:46;;;;;;;19.80;3.30;;;16.90;99.90;;;;;;5020195;28;20037;-77
2022/11/24 11:00:18;;;;;;;20.92;3.47;;;16.90;99.90;;;;;;5007952;28;20144;-77
2022/11/24 11:02:46;;;;;;;21.50;4.47;;;16.90;99.90;;;;;;5018886;28;20037;-77
2022/11/24 11:05:41;;;;;;;18.80;3.67;;;16.90;99.90;;;;;;5020575;28;20033;-77
2022/11/24 11:08:12;;;;;;;19.92;3.42;;;17.20;99.90;;;;;;5013796;28;20030;-76
2022/11/24 11:10:39;;;;;;;24.20;4.70;;;17.50;99.90;;;;;;5019733;28;20053;-78
2022/11/24 11:13:25;;;;;;;19.67;3.92;;;18.30;99.90;;;;;;5022415;28;20729;-78
2022/11/24 11:15:52;;;;;;;22.60;3.72;;;18.40;99.90;;;;;;5016218;28;20103;-77
2022/11/24 11:18:18;;;;;;;;;;;18.70;99.90;;;;;;4996226;28;20040;-78
2022/11/24 11:20:56;;;;;;;17.75;3.70;;;19.00;99.90;;;;;;5003274;28;20226;-77
2022/11/24 11:23:28;;;;;;;26.83;4.20;;;19.70;99.90;;;;;;5015416;28;20038;-78
2022/11/24 11:26:32;;;;;;;19.42;3.70;;;20.00;99.90;;;;;;5018763;28;21958;-76
2022/11/24 11:29:02;;;;;;;25.65;4.25;;;20.00;99.90;;;;;;5016345;28;20052;-77
2022/11/24 11:31:28;;;;;;;18.25;3.78;;;20.40;99.90;;;;;;5016534;28;20157;-77
2022/11/24 11:34:02;;;;;;;22.95;4.45;;;19.80;99.90;;;;;;5017475;28;20133;-77
2022/11/24 11:36:30;;;;;;;27.17;4.85;;;19.60;99.90;;;;;;5026908;28;20048;-76
2022/11/24 11:38:58;;;;;;;22.02;4.40;;;20.10;99.90;;;;;;5007608;28;20361;-78
2022/11/24 11:41:40;;;;;;;18.27;3.95;;;19.80;99.90;;;;;;5016178;28;20062;-78
2022/11/24 11:44:39;;;;;;;16.52;3.33;;;20.20;99.90;;;;;;4991770;28;20049;-79
2022/11/24 11:47:24;;;;;;;20.55;3.35;;;19.20;99.90;;;;;;5027051;28;20057;-77
2022/11/24 11:49:50;;;;;;;;;;;19.90;99.90;;;;;;5022414;28;20045;-78
2022/11/24 11:52:21;;;;;;;24.90;3.53;;;20.10;99.90;;;;;;5013190;28;19939;-77
2022/11/24 11:55:20;;;;;;;21.88;4.25;;;20.10;99.90;;;;;;5015695;28;20115;-76
2022/11/24 11:57:56;;;;;;;20.70;3.92;;;21.40;99.90;;;;;;5017882;28;20042;-77
2022/11/24 12:00:22;;;;;;;18.15;3.58;;;19.60;99.90;;;;;;4994897;28;20044;-78
2022/11/24 12:03:09;;;;;;;19.50;4.07;;;19.30;99.90;;;;;;5021350;28;20038;-78
2022/11/24 12:05:58;;;;;;;18.35;4.13;;;19.70;99.90;;;;;;5023020;28;20057;-77
2022/11/24 12:08:54;;;;;;;25.08;4.07;;;21.50;99.90;;;;;;5016603;28;20137;-79
2022/11/24 12:11:26;;;;;;;24.65;4.43;;;22.30;99.90;;;;;;5019830;28;20037;-79
2022/11/24 12:14:08;;;;;;;20.90;4.93;;;22.20;99.90;;;;;;5025547;28;20026;-78
2022/11/24 12:17:09;;;;;;;21.30;4.38;;;21.60;99.90;;;;;;5031750;28;20106;-79
2022/11/24 12:20:19;;;;;;;18.48;3.85;;;22.30;99.90;;;;;;5032259;28;20045;-80
2022/11/24 12:23:12;;;;;;;24.58;5.40;;;23.60;99.90;;;;;;4933538;28;20179;-77
2022/11/24 12:25:54;;;;;;;15.23;3.67;;;23.20;99.90;;;;;;4907147;28;20066;-78
2022/11/24 12:28:51;;;;;;;18.65;4.47;;;22.20;99.90;;;;;;5001415;28;20049;-77
2022/11/24 12:31:27;;;;;;;22.33;3.85;;;23.00;99.90;;;;;;5010524;28;20136;-78
2022/11/24 12:34:28;;;;;;;23.88;4.45;;;20.80;99.90;;;;;;5029005;28;20038;-77
2022/11/24 12:37:09;;;;;;;21.83;5.03;;;19.80;99.90;;;;;;4986496;28;20045;-78
2022/11/24 12:39:50;;;;;;;19.40;3.92;;;18.90;99.90;;;;;;5021681;28;20042;-77
2022/11/24 12:42:30;;;;;;;17.35;3.78;;;18.90;99.90;;;;;;5025749;28;20033;-76
2022/11/24 12:45:08;;;;;;;15.75;3.95;;;18.90;99.90;;;;;;5020295;28;20048;-77
2022/11/24 12:47:52;;;;;;;27.73;4.45;;;18.60;99.90;;;;;;5025161;28;20049;-78
2022/11/24 12:50:22;;;;;;;21.60;3.90;;;18.30;99.90;;;;;;5026111;28;20048;-77
2022/11/24 12:53:01;;;;;;;20.75;4.07;;;18.20;99.90;;;;;;5016873;28;20045;-78
2022/11/24 12:55:32;;;;;;;21.67;3.53;;;17.90;99.90;;;;;;5027496;28;20034;-78
2022/11/24 12:58:22;;;;;;;22.92;3.88;;;17.90;99.90;;;;;;5030425;28;20657;-77
2022/11/24 13:01:30;;;;;;;21.27;4.38;;;17.90;99.90;;;;;;5024243;28;20034;-78
2022/11/24 13:04:34;;;;;;;25.98;3.75;;;18.00;99.90;;;;;;4992362;28;20209;-79
2022/11/24 13:07:15;;;;;;;27.88;5.28;;;19.50;99.90;;;;;;4992506;28;20149;-78